createdAt,value
2023-05-07T00:00:23.832Z,99262.37
2023-05-07T00:17:03.284Z,99269.25
2023-05-07T00:20:40.519Z,99261.63
2023-05-07T01:15:05.333Z,99271.09
2023-05-07T01:22:46.682Z,99270.47
2023-05-07T01:26:12.140Z,99273.75
2023-05-07T01:29:57.375Z,99283.09
2023-05-07T01:33:59.056Z,99280.66
2023-05-07T01:37:32.282Z,99279.88
2023-05-07T01:54:42.208Z,99284.56
2023-05-07T02:01:01.415Z,99269.56
2023-05-07T02:04:25.541Z,99269.91
2023-05-07T02:11:48.523Z,99266.44
2023-05-07T02:16:07.008Z,99267.44
2023-05-07T02:26:28.042Z,99272.19
2023-05-07T02:57:28.117Z,99260.31
2023-05-07T04:03:49.176Z,99280.22
2023-05-07T04:32:48.960Z,99290.50
2023-05-07T04:39:25.632Z,99298.00
2023-05-07T04:42:01.596Z,99297.22
2023-05-07T04:44:36.089Z,99300.97
2023-05-07T04:47:07.349Z,99302.91
2023-05-07T04:49:38.256Z,99291.09
2023-05-07T04:52:41.852Z,99299.53
2023-05-07T04:55:09.908Z,99310.50
2023-05-07T04:58:25.755Z,99298.38
2023-05-07T05:16:34.726Z,99298.69
2023-05-07T05:19:42.721Z,99311.22
2023-05-07T05:31:15.986Z,99311.66
2023-05-07T05:38:18.866Z,99307.53
2023-05-07T05:50:12.010Z,99299.19
2023-05-07T05:52:48.629Z,99300.94
2023-05-07T05:55:20.322Z,99295.25
2023-05-07T05:57:58.711Z,99296.88
2023-05-07T06:00:44.558Z,99300.84
2023-05-07T06:03:20.564Z,99315.50
2023-05-07T06:05:54.844Z,99305.41
2023-05-07T06:08:37.110Z,99302.22
2023-05-07T06:11:07.316Z,99305.66
2023-05-07T06:13:40.017Z,99305.41
2023-05-07T06:16:10.844Z,99308.25
2023-05-07T06:18:42.898Z,99303.56
2023-05-07T06:21:12.450Z,99308.69
2023-05-07T06:23:42.094Z,99307.63
2023-05-07T06:26:16.143Z,99305.25
2023-05-07T06:28:59.733Z,99302.84
2023-05-07T06:31:33.276Z,99310.28
2023-05-07T06:34:13.214Z,99305.19
2023-05-07T06:39:48.032Z,99311.16
2023-05-07T06:42:17.158Z,99315.09
2023-05-07T06:44:47.122Z,99313.97
2023-05-07T06:47:16.560Z,99317.78
2023-05-07T06:49:47.058Z,99314.97
2023-05-07T06:52:15.835Z,99319.44
2023-05-07T06:54:44.415Z,99312.78
2023-05-07T06:57:32.877Z,99320.09
2023-05-07T07:00:00.829Z,99315.25
2023-05-07T07:02:30.494Z,99319.69
2023-05-07T07:04:58.652Z,99326.84
2023-05-07T07:07:26.720Z,99331.25
2023-05-07T07:10:02.145Z,99335.09
2023-05-07T07:12:31.070Z,99337.44
2023-05-07T07:14:58.808Z,99338.91
2023-05-07T07:17:30.860Z,99345.34
2023-05-07T07:19:58.560Z,99348.75
2023-05-07T07:22:27.834Z,99349.66
2023-05-07T07:24:56.397Z,99354.81
2023-05-07T07:27:39.198Z,99358.75
2023-05-07T07:30:11.027Z,99359.06
2023-05-07T07:32:41.843Z,99366.84
2023-05-07T07:35:11.236Z,99364.16
2023-05-07T07:37:39.783Z,99369.78
2023-05-07T07:40:08.331Z,99376.91
2023-05-07T07:42:41.961Z,99375.94
2023-05-07T07:45:18.669Z,99367.50
2023-05-07T07:47:50.040Z,99366.56
2023-05-07T07:50:28.111Z,99368.53
2023-05-07T07:53:15.225Z,99371.75
2023-05-07T07:56:05.651Z,99376.13
2023-05-07T07:58:40.450Z,99371.28
2023-05-07T08:01:08.611Z,99370.47
2023-05-07T08:03:37.066Z,99368.91
2023-05-07T08:06:05.066Z,99379.53
2023-05-07T08:08:33.642Z,99371.13
2023-05-07T08:11:02.163Z,99366.97
2023-05-07T08:13:33.040Z,99372.78
2023-05-07T08:16:03.611Z,99367.34
2023-05-07T08:18:35.609Z,99359.28
2023-05-07T08:21:22.191Z,99360.78
2023-05-07T08:24:13.615Z,99354.63
2023-05-07T08:26:44.933Z,99360.47
2023-05-07T08:29:14.949Z,99367.16
2023-05-07T08:31:43.050Z,99365.69
2023-05-07T08:34:10.952Z,99366.56
2023-05-07T08:36:39.774Z,99370.16
2023-05-07T08:39:10.707Z,99373.06
2023-05-07T08:41:39.996Z,99373.44
2023-05-07T08:44:10.334Z,99381.84
2023-05-07T08:46:40.661Z,99369.28
2023-05-07T08:49:08.912Z,99367.84
2023-05-07T08:51:37.363Z,99375.66
2023-05-07T08:54:06.170Z,99374.47
2023-05-07T08:56:38.012Z,99383.44
2023-05-07T08:59:05.876Z,99380.72
2023-05-07T09:01:38.818Z,99372.69
2023-05-07T09:04:10.552Z,99369.50
2023-05-07T09:06:43.044Z,99370.53
2023-05-07T09:09:11.261Z,99373.28
2023-05-07T09:11:42.406Z,99373.72
2023-05-07T09:14:23.192Z,99367.28
2023-05-07T09:16:54.749Z,99370.63
2023-05-07T09:19:54.779Z,99372.25
2023-05-07T09:22:26.319Z,99372.81
2023-05-07T09:24:54.830Z,99369.50
2023-05-07T09:27:23.169Z,99372.34
2023-05-07T09:29:56.582Z,99376.13
2023-05-07T09:32:24.908Z,99374.00
2023-05-07T09:35:11.257Z,99368.69
2023-05-07T09:37:53.222Z,99370.81
2023-05-07T09:40:35.891Z,99369.63
2023-05-07T09:43:14.305Z,99374.16
2023-05-07T09:45:54.745Z,99374.13
2023-05-07T09:48:44.766Z,99368.34
2023-05-07T09:51:38.005Z,99372.62
2023-05-07T09:54:05.851Z,99373.19
2023-05-07T09:56:34.719Z,99380.28
2023-05-07T09:59:05.429Z,99377.97
2023-05-07T10:01:35.026Z,99386.91
2023-05-07T10:04:05.462Z,99380.72
2023-05-07T10:06:39.425Z,99385.50
2023-05-07T10:09:09.162Z,99377.91
2023-05-07T10:11:37.756Z,99381.69
2023-05-07T10:14:11.347Z,99387.91
2023-05-07T10:16:42.027Z,99378.50
2023-05-07T10:19:12.447Z,99383.47
2023-05-07T10:21:47.668Z,99380.75
2023-05-07T10:24:18.919Z,99382.56
2023-05-07T10:26:55.769Z,99379.12
2023-05-07T10:29:52.959Z,99380.03
2023-05-07T10:32:40.937Z,99384.72
2023-05-07T10:35:13.936Z,99381.38
2023-05-07T10:37:45.811Z,99384.56
2023-05-07T10:40:26.363Z,99375.94
2023-05-07T10:43:03.718Z,99376.09
2023-05-07T10:45:32.269Z,99381.78
2023-05-07T10:48:28.820Z,99371.25
2023-05-07T10:51:18.917Z,99374.50
2023-05-07T10:54:11.240Z,99371.38
2023-05-07T10:56:57.574Z,99367.56
2023-05-07T11:00:00.303Z,99373.47
2023-05-07T11:03:06.839Z,99364.38
2023-05-07T11:05:38.558Z,99367.09
2023-05-07T11:08:07.180Z,99359.09
2023-05-07T11:10:52.424Z,99356.88
2023-05-07T11:13:42.661Z,99356.84
2023-05-07T11:16:31.390Z,99354.69
2023-05-07T11:19:00.266Z,99364.91
2023-05-07T11:21:41.375Z,99358.72
2023-05-07T11:24:54.877Z,99369.81
2023-05-07T11:27:44.216Z,99373.00
2023-05-07T11:30:20.925Z,99360.84
2023-05-07T11:32:50.217Z,99367.06
2023-05-07T11:38:29.273Z,99355.47
2023-05-07T11:41:12.239Z,99366.84
2023-05-07T11:46:53.968Z,99353.69
2023-05-07T11:49:22.105Z,99354.66
2023-05-07T11:52:04.384Z,99358.31
2023-05-07T11:55:28.283Z,99348.62
2023-05-07T11:58:01.687Z,99346.03
2023-05-07T12:00:37.450Z,99341.53
2023-05-07T12:03:42.877Z,99347.63
2023-05-07T12:06:21.479Z,99348.19
2023-05-07T12:09:00.498Z,99341.06
2023-05-07T12:11:35.449Z,99344.25
2023-05-07T12:14:09.482Z,99341.53
2023-05-07T12:17:00.096Z,99336.91
2023-05-07T12:22:23.933Z,99342.78
2023-05-07T12:24:58.906Z,99332.69
2023-05-07T12:27:27.209Z,99334.12
2023-05-07T12:29:55.456Z,99327.59
2023-05-07T12:32:23.459Z,99336.44
2023-05-07T12:35:04.134Z,99333.19
2023-05-07T12:38:07.103Z,99333.19
2023-05-07T12:41:00.185Z,99339.53
2023-05-07T12:43:40.442Z,99335.88
2023-05-07T12:46:30.218Z,99321.88
2023-05-07T12:49:14.633Z,99329.19
2023-05-07T12:51:48.049Z,99332.97
2023-05-07T12:54:32.917Z,99329.94
2023-05-07T12:57:20.935Z,99325.66
2023-05-07T13:00:01.346Z,99323.56
2023-05-07T13:02:38.793Z,99325.38
2023-05-07T13:05:23.200Z,99330.06
2023-05-07T13:07:57.726Z,99328.97
2023-05-07T13:10:26.254Z,99331.44
2023-05-07T13:12:57.654Z,99327.50
2023-05-07T13:15:27.051Z,99327.44
2023-05-07T13:17:56.828Z,99318.69
2023-05-07T13:20:30.013Z,99326.12
2023-05-07T13:23:13.824Z,99312.47
2023-05-07T13:25:42.153Z,99310.00
2023-05-07T13:28:11.601Z,99310.16
2023-05-07T13:30:39.647Z,99310.75
2023-05-07T13:33:07.776Z,99309.34
2023-05-07T13:35:37.958Z,99305.47
2023-05-07T13:38:19.777Z,99310.47
2023-05-07T13:41:00.861Z,99303.06
2023-05-07T13:43:31.341Z,99296.38
2023-05-07T13:46:05.296Z,99304.41
2023-05-07T13:48:43.198Z,99301.97
2023-05-07T13:51:21.628Z,99295.69
2023-05-07T13:53:53.560Z,99290.78
2023-05-07T13:56:31.357Z,99293.13
2023-05-07T13:59:01.848Z,99284.78
2023-05-07T14:01:35.053Z,99288.88
2023-05-07T14:04:07.099Z,99282.19
2023-05-07T14:06:35.156Z,99282.41
2023-05-07T14:09:03.407Z,99273.91
2023-05-07T14:11:36.285Z,99276.28
2023-05-07T14:14:05.017Z,99277.59
2023-05-07T14:16:39.313Z,99270.16
2023-05-07T14:19:07.576Z,99284.28
2023-05-07T14:21:41.129Z,99281.66
2023-05-07T14:24:10.873Z,99282.41
2023-05-07T14:26:38.841Z,99272.91
2023-05-07T14:29:11.428Z,99279.28
2023-05-07T14:31:56.990Z,99291.44
2023-05-07T14:34:26.286Z,99283.34
2023-05-07T14:36:55.046Z,99289.06
2023-05-07T14:39:22.910Z,99287.19
2023-05-07T14:41:51.068Z,99296.34
2023-05-07T14:44:19.944Z,99297.44
2023-05-07T14:46:50.068Z,99296.56
2023-05-07T14:49:25.690Z,99296.66
2023-05-07T14:51:53.439Z,99298.03
2023-05-07T14:54:49.784Z,99300.59
2023-05-07T14:57:23.151Z,99303.56
2023-05-07T14:59:54.073Z,99304.53
2023-05-07T15:02:22.179Z,99303.62
2023-05-07T15:04:51.099Z,99295.22
2023-05-07T15:07:40.289Z,99305.72
2023-05-07T15:10:08.558Z,99300.44
2023-05-07T15:12:36.784Z,99306.75
2023-05-07T15:15:04.820Z,99307.28
2023-05-07T15:17:32.718Z,99309.31
2023-05-07T15:20:01.028Z,99305.06
2023-05-07T15:22:29.882Z,99303.94
2023-05-07T15:24:58.469Z,99304.09
2023-05-07T15:27:29.833Z,99302.38
2023-05-07T15:30:16.964Z,99303.19
2023-05-07T15:32:47.182Z,99304.50
2023-05-07T15:35:19.117Z,99306.41
2023-05-07T15:37:58.327Z,99302.56
2023-05-07T15:40:26.520Z,99308.03
2023-05-07T15:43:31.726Z,99308.56
2023-05-07T15:46:07.751Z,99299.66
2023-05-07T15:48:53.114Z,99309.38
2023-05-07T15:51:25.547Z,99313.00
2023-05-07T15:53:59.848Z,99306.06
2023-05-07T15:56:34.455Z,99308.97
2023-05-07T15:59:02.730Z,99311.19
2023-05-07T16:01:30.457Z,99312.06
2023-05-07T16:03:58.976Z,99311.62
2023-05-07T16:06:28.075Z,99311.78
2023-05-07T16:08:59.673Z,99317.13
2023-05-07T16:11:34.623Z,99311.66
2023-05-07T16:14:07.283Z,99311.16
2023-05-07T16:16:44.356Z,99315.94
2023-05-07T16:19:15.022Z,99312.91
2023-05-07T16:21:47.044Z,99313.34
2023-05-07T16:24:18.508Z,99307.19
2023-05-07T16:26:48.201Z,99313.50
2023-05-07T16:29:22.476Z,99308.31
2023-05-07T16:31:54.634Z,99302.06
2023-05-07T16:34:28.698Z,99303.97
2023-05-07T16:37:00.832Z,99296.22
2023-05-07T16:39:37.761Z,99294.53
2023-05-07T16:42:06.255Z,99293.38
2023-05-07T16:44:34.404Z,99299.63
2023-05-07T16:47:02.500Z,99297.34
2023-05-07T16:49:30.832Z,99295.03
2023-05-07T16:51:58.690Z,99298.13
2023-05-07T16:54:26.608Z,99295.94
2023-05-07T16:56:58.273Z,99301.16
2023-05-07T16:59:29.769Z,99302.81
2023-05-07T17:01:59.220Z,99303.50
2023-05-07T17:04:28.633Z,99302.63
2023-05-07T17:06:59.979Z,99302.34
2023-05-07T17:09:29.152Z,99305.50
2023-05-07T17:11:57.039Z,99312.72
2023-05-07T17:14:24.822Z,99313.44
2023-05-07T17:16:56.433Z,99314.94
2023-05-07T17:19:31.382Z,99314.03
2023-05-07T17:22:01.940Z,99325.38
2023-05-07T17:24:35.012Z,99316.84
2023-05-07T17:27:12.518Z,99315.56
2023-05-07T17:29:47.364Z,99325.31
2023-05-07T17:32:40.870Z,99321.91
2023-05-07T17:35:10.695Z,99327.31
2023-05-07T17:37:47.300Z,99331.13
2023-05-07T17:40:18.621Z,99317.97
2023-05-07T17:42:56.213Z,99323.44
2023-05-07T17:45:30.070Z,99329.56
2023-05-07T17:48:01.054Z,99326.00
2023-05-07T17:50:36.792Z,99337.31
2023-05-07T17:53:12.111Z,99340.06
2023-05-07T17:55:43.952Z,99342.81
2023-05-07T17:58:20.061Z,99354.19
2023-05-07T18:00:48.725Z,99348.22
2023-05-07T18:03:17.007Z,99354.91
2023-05-07T18:08:51.540Z,99347.75
2023-05-07T18:11:22.447Z,99357.56
2023-05-07T18:13:50.175Z,99368.03
2023-05-07T18:16:19.500Z,99374.00
2023-05-07T18:18:48.984Z,99371.38
2023-05-07T18:22:00.966Z,99379.56
2023-05-07T18:27:45.477Z,99372.41
2023-05-07T18:30:17.109Z,99383.22
2023-05-07T18:32:52.056Z,99380.19
2023-05-07T18:35:24.257Z,99380.09
2023-05-07T18:37:53.897Z,99390.97
2023-05-07T18:40:22.308Z,99387.19
2023-05-07T18:42:50.390Z,99397.31
2023-05-07T18:45:22.117Z,99395.84
2023-05-07T18:47:51.006Z,99390.56
2023-05-07T18:50:19.209Z,99389.22
2023-05-07T18:52:49.988Z,99389.97
2023-05-07T18:55:20.219Z,99391.78
2023-05-07T18:57:50.435Z,99390.06
2023-05-07T19:00:19.535Z,99389.63
2023-05-07T19:02:52.150Z,99389.13
2023-05-07T19:05:30.969Z,99392.97
2023-05-07T19:08:07.630Z,99405.72
2023-05-07T19:10:39.771Z,99401.78
2023-05-07T19:13:07.542Z,99411.81
2023-05-07T19:15:35.907Z,99411.50
2023-05-07T19:18:04.095Z,99414.50
2023-05-07T19:20:32.206Z,99433.38
2023-05-07T19:23:00.600Z,99447.72
2023-05-07T19:25:28.329Z,99462.03
2023-05-07T19:27:58.685Z,99468.84
2023-05-07T19:30:37.824Z,99487.97
2023-05-07T19:33:11.466Z,99508.19
2023-05-07T19:36:07.651Z,99525.81
2023-05-07T19:39:08.221Z,99520.56
2023-05-07T19:44:38.360Z,99513.56
2023-05-07T19:47:10.670Z,99524.78
2023-05-07T19:50:21.180Z,99515.72
2023-05-07T19:53:02.878Z,99533.59
2023-05-07T19:56:08.848Z,99532.78
2023-05-07T19:59:03.439Z,99545.78
2023-05-07T20:01:43.466Z,99558.25
2023-05-07T20:04:47.480Z,99566.37
2023-05-07T20:07:51.375Z,99569.19
2023-05-07T20:10:49.615Z,99574.37
2023-05-07T20:13:44.161Z,99566.13
2023-05-07T20:16:15.534Z,99568.16
2023-05-07T20:18:51.109Z,99569.28
2023-05-07T20:21:36.122Z,99574.59
2023-05-07T20:34:25.983Z,99583.41
2023-05-07T20:36:54.395Z,99584.94
2023-05-07T20:39:44.853Z,99586.16
2023-05-07T20:42:14.522Z,99584.47
2023-05-07T20:44:43.895Z,99586.66
2023-05-07T20:47:11.784Z,99590.44
2023-05-07T20:49:40.634Z,99598.25
2023-05-07T20:52:09.970Z,99596.72
2023-05-07T20:54:44.365Z,99594.44
2023-05-07T20:57:12.683Z,99602.50
2023-05-07T20:59:40.863Z,99609.53
2023-05-07T21:02:11.646Z,99604.50
2023-05-07T21:04:44.361Z,99624.16
2023-05-07T21:07:13.580Z,99611.72
2023-05-07T21:09:42.637Z,99619.28
2023-05-07T21:12:11.517Z,99615.75
2023-05-07T21:14:40.620Z,99620.69
2023-05-07T21:17:08.867Z,99631.53
2023-05-07T21:19:36.748Z,99627.75
2023-05-07T21:22:06.341Z,99625.38
2023-05-07T21:24:34.430Z,99632.19
2023-05-07T21:27:03.032Z,99630.75
2023-05-07T21:29:30.823Z,99625.75
2023-05-07T21:31:59.214Z,99633.53
2023-05-07T21:34:27.126Z,99625.53
2023-05-07T21:36:54.865Z,99639.19
2023-05-07T21:39:23.017Z,99636.00
2023-05-07T21:41:51.628Z,99639.47
2023-05-07T21:44:43.251Z,99637.16
2023-05-07T21:47:11.819Z,99634.53
2023-05-07T21:49:41.697Z,99636.22
2023-05-07T21:52:13.032Z,99632.19
2023-05-07T21:54:41.151Z,99642.03
2023-05-07T21:57:09.142Z,99638.34
2023-05-07T21:59:37.737Z,99636.19
2023-05-07T22:02:06.078Z,99642.56
2023-05-07T22:04:34.285Z,99642.94
2023-05-07T22:07:02.123Z,99647.38
2023-05-07T22:09:29.908Z,99640.72
2023-05-07T22:11:57.952Z,99646.56
2023-05-07T22:14:25.545Z,99654.97
2023-05-07T22:17:20.353Z,99644.03
2023-05-07T22:19:50.289Z,99639.97
2023-05-07T22:22:19.393Z,99642.97
2023-05-07T22:24:47.647Z,99646.41
2023-05-07T22:27:38.618Z,99641.19
2023-05-07T22:30:07.113Z,99649.28
2023-05-07T22:32:35.147Z,99641.53
2023-05-07T22:35:25.211Z,99647.84
2023-05-07T22:37:53.306Z,99658.25
2023-05-07T22:40:25.962Z,99653.34
2023-05-07T22:42:56.188Z,99649.59
2023-05-07T22:45:23.825Z,99661.06
2023-05-07T22:47:51.471Z,99659.06
2023-05-07T22:50:19.507Z,99662.34
2023-05-07T22:52:47.144Z,99663.44
2023-05-07T22:55:15.012Z,99658.19
2023-05-07T22:57:45.838Z,99674.38
2023-05-07T23:00:14.028Z,99668.34
2023-05-07T23:02:42.039Z,99670.25
2023-05-07T23:05:10.547Z,99663.34
2023-05-07T23:07:38.550Z,99677.09
2023-05-07T23:10:06.528Z,99680.69
2023-05-07T23:12:36.120Z,99673.13
2023-05-07T23:17:58.667Z,99668.69
2023-05-07T23:20:46.369Z,99675.41
2023-05-07T23:23:14.500Z,99669.84
2023-05-07T23:25:42.254Z,99670.63
2023-05-07T23:28:10.035Z,99672.56
2023-05-07T23:30:38.138Z,99673.91
2023-05-07T23:33:06.201Z,99675.59
2023-05-07T23:35:33.960Z,99677.31
2023-05-07T23:38:02.050Z,99666.28
2023-05-07T23:40:29.925Z,99671.47
2023-05-07T23:43:01.249Z,99668.88
2023-05-07T23:45:39.671Z,99664.53
2023-05-07T23:48:17.062Z,99665.44
2023-05-07T23:50:46.383Z,99660.22
2023-05-07T23:53:14.012Z,99663.69
2023-05-07T23:55:41.660Z,99657.53
2023-05-07T23:58:10.150Z,99667.94
